Terminal Aerodrome Forecast
Issued by NWS Sioux Falls, SD

Home | Current Version | Previous Version | Text Only | Print | Product List | Glossary On
Versions: 1 2 3 4 5 6 7 8 9 10 11 12 13 14 15 16 17 18 19 20 21 22
307
FTUS43 KFSD 141125 AAC
TAFFSD
TAF AMD
KFSD 141125Z 1411/1512 VRB03KT 1/4SM FG VV001
     FM141300 35004KT 1/2SM FG BKN006
     FM141500 36005KT 3SM BR SCT007
     FM141800 36005KT P6SM SCT040
     FM150200 06006KT P6SM SCT250
     FM151000 09005KT P6SM BKN030=

USA.gov is the U.S. government's official web portal to all federal, state and local government web resources and services.